Time;durP1;ratioP1;P1;durP2;ratioP2;P2;SDS_P1;SDS_P2;PMS_P1;PMS_P2;Temp;Humidity;BMP_temperature;BMP_pressure;BME280_temperature;BME280_humidity;BME280_pressure;Samples;Min_cycle;Max_cycle;Signal;HPM_P1;HPM_P2
2022/11/07 00:01:28;;;;;;;10.75;2.28;;;11.40;99.90;;;;;;5071967;28;20021;-73
2022/11/07 00:03:54;;;;;;;8.07;2.47;;;11.40;99.90;;;;;;5072388;28;20040;-72
2022/11/07 00:06:23;;;;;;;10.38;2.42;;;11.40;99.90;;;;;;5072939;28;20066;-73
2022/11/07 00:08:50;;;;;;;7.45;2.30;;;11.40;99.90;;;;;;5072703;28;20396;-74
2022/11/07 00:11:18;;;;;;;8.65;2.47;;;11.40;99.90;;;;;;5058646;28;20025;-72
2022/11/07 00:13:43;;;;;;;13.68;3.45;;;11.50;99.90;;;;;;5071899;28;20036;-73
2022/11/07 00:16:10;;;;;;;9.80;2.47;;;11.50;99.90;;;;;;5072619;28;20074;-73
2022/11/07 00:18:36;;;;;;;9.07;2.97;;;11.50;99.90;;;;;;5072598;28;20084;-74
2022/11/07 00:21:09;;;;;;;6.88;2.67;;;11.40;99.90;;;;;;5088892;28;20461;-73
2022/11/07 00:23:35;;;;;;;12.52;3.00;;;11.40;99.90;;;;;;5072848;28;20070;-73
2022/11/07 00:26:06;;;;;;;6.97;2.65;;;11.40;99.90;;;;;;5073488;28;20020;-73
2022/11/07 00:28:36;;;;;;;10.38;3.25;;;11.40;99.90;;;;;;5073017;28;20405;-74
2022/11/07 00:31:01;;;;;;;9.93;2.83;;;11.40;99.90;;;;;;5073069;28;20039;-74
2022/11/07 00:33:27;;;;;;;7.53;2.30;;;11.40;99.90;;;;;;5073398;28;20115;-76
2022/11/07 00:35:53;;;;;;;6.45;2.22;;;11.40;99.90;;;;;;5073536;28;20128;-75
2022/11/07 00:38:18;;;;;;;11.82;2.28;;;11.40;99.90;;;;;;5072888;28;20055;-74
2022/11/07 00:40:56;;;;;;;6.07;2.30;;;11.40;99.90;;;;;;5072550;28;20055;-73
2022/11/07 00:43:22;;;;;;;9.05;2.78;;;11.40;99.90;;;;;;5071840;28;20028;-75
2022/11/07 00:45:48;;;;;;;5.47;2.50;;;11.30;99.90;;;;;;5071917;28;20028;-75
2022/11/07 00:48:14;;;;;;;8.65;2.42;;;11.30;99.90;;;;;;5072118;28;20024;-74
2022/11/07 00:50:42;;;;;;;7.32;2.30;;;11.30;99.90;;;;;;5071249;28;20330;-74
2022/11/07 00:53:08;;;;;;;7.07;2.45;;;11.40;99.90;;;;;;5072524;28;20398;-74
2022/11/07 00:55:34;;;;;;;16.27;2.42;;;11.40;99.90;;;;;;5071252;28;20025;-74
2022/11/07 00:57:59;;;;;;;7.13;2.15;;;11.40;99.90;;;;;;5073142;28;20032;-73
2022/11/07 01:00:25;;;;;;;9.07;2.67;;;11.20;99.90;;;;;;5072404;28;20024;-74
2022/11/07 01:05:09;;;;;;;11.10;3.38;;;11.20;99.90;;;;;;5073147;28;20056;-73
2022/11/07 01:05:36;;;;;;;10.30;2.60;;;11.30;99.90;;;;;;5076143;28;20045;-74
2022/11/07 01:08:02;;;;;;;16.15;2.65;;;11.30;99.90;;;;;;5076104;28;20021;-73
2022/11/07 01:10:28;;;;;;;20.40;3.70;;;11.40;99.90;;;;;;5065219;28;20354;-73
2022/11/07 01:12:53;;;;;;;9.65;2.30;;;11.40;99.90;;;;;;5072310;28;20455;-73
2022/11/07 01:15:19;;;;;;;14.55;2.70;;;11.30;99.90;;;;;;5075478;28;20107;-74
2022/11/07 01:17:44;;;;;;;9.88;2.38;;;11.30;99.90;;;;;;5075154;28;20024;-74
2022/11/07 01:20:11;;;;;;;6.60;2.05;;;11.40;99.90;;;;;;5075366;28;20495;-74
2022/11/07 01:22:36;;;;;;;12.00;2.40;;;11.40;99.90;;;;;;5075561;28;20036;-73
2022/11/07 01:25:03;;;;;;;7.95;2.20;;;11.40;99.90;;;;;;5074905;28;20019;-73
2022/11/07 01:27:29;;;;;;;6.25;2.13;;;11.40;99.90;;;;;;5074884;28;20563;-73
2022/11/07 01:29:54;;;;;;;9.55;2.40;;;11.40;99.90;;;;;;5075324;28;20060;-74
2022/11/07 01:32:20;;;;;;;14.75;3.30;;;11.40;99.90;;;;;;5074755;28;20111;-74
2022/11/07 01:34:45;;;;;;;8.18;2.35;;;11.40;99.90;;;;;;5074947;28;20040;-73
2022/11/07 01:37:11;;;;;;;14.13;2.42;;;11.40;99.90;;;;;;5075208;28;20414;-74
2022/11/07 01:39:37;;;;;;;8.80;1.98;;;11.30;99.90;;;;;;5074906;28;20524;-74
2022/11/07 01:42:03;;;;;;;12.07;2.20;;;11.40;99.90;;;;;;5075903;28;20376;-74
2022/11/07 01:44:31;;;;;;;13.40;2.60;;;11.40;99.90;;;;;;5073533;28;20031;-74
2022/11/07 01:46:58;;;;;;;9.65;2.38;;;11.50;99.90;;;;;;5063136;28;20513;-74
2022/11/07 01:49:36;;;;;;;11.18;2.30;;;11.50;99.90;;;;;;5064439;28;20168;-74
2022/11/07 01:52:22;;;;;;;11.05;2.53;;;11.50;99.90;;;;;;5074880;28;20016;-74
2022/11/07 01:54:53;;;;;;;5.32;2.20;;;11.50;99.90;;;;;;5075819;28;20121;-74
2022/11/07 01:57:27;;;;;;;13.30;2.33;;;11.60;99.90;;;;;;5074539;28;20025;-74
2022/11/07 01:59:56;;;;;;;7.43;2.10;;;12.80;99.90;;;;;;5062588;28;20104;-73
2022/11/07 02:02:25;;;;;;;8.55;1.90;;;11.60;99.90;;;;;;5055239;28;20025;-74
2022/11/07 02:04:51;;;;;;;7.55;2.55;;;11.50;99.90;;;;;;5059012;28;20029;-74
2022/11/07 02:07:22;;;;;;;8.23;2.95;;;11.50;99.90;;;;;;5071333;28;20040;-74
2022/11/07 02:09:49;;;;;;;;;;;11.60;99.90;;;;;;5061441;28;20029;-74
2022/11/07 02:12:16;;;;;;;10.30;2.65;;;11.60;99.90;;;;;;5075687;28;19915;-74
2022/11/07 02:14:42;;;;;;;9.32;2.35;;;11.50;99.90;;;;;;5072935;28;20055;-74
2022/11/07 02:17:13;;;;;;;7.03;2.10;;;11.50;99.90;;;;;;5073745;28;20021;-74
2022/11/07 02:19:50;;;;;;;14.88;2.72;;;11.40;99.90;;;;;;5074461;28;20028;-74
2022/11/07 02:22:37;;;;;;;9.27;2.97;;;11.40;99.90;;;;;;5074483;28;20032;-74
2022/11/07 02:25:07;;;;;;;7.15;2.65;;;11.40;99.90;;;;;;5074266;28;20468;-74
2022/11/07 02:27:33;;;;;;;5.25;2.65;;;11.40;99.90;;;;;;5073573;28;20558;-74
2022/11/07 02:30:24;;;;;;;10.40;2.67;;;11.40;99.90;;;;;;5074470;28;20378;-74
2022/11/07 02:32:50;;;;;;;12.45;3.00;;;11.40;99.90;;;;;;5057025;28;20029;-74
2022/11/07 02:35:33;;;;;;;10.80;2.47;;;11.40;99.90;;;;;;5054898;28;20086;-73
2022/11/07 02:38:00;;;;;;;3.97;1.80;;;11.40;99.90;;;;;;5074687;28;20021;-73
2022/11/07 02:40:27;;;;;;;10.45;2.13;;;11.40;99.90;;;;;;5073972;28;20021;-73
2022/11/07 02:42:53;;;;;;;12.68;2.75;;;11.40;99.90;;;;;;5073622;28;20020;-74
2022/11/07 02:45:24;;;;;;;8.43;2.78;;;11.40;99.90;;;;;;5073944;28;20392;-76
2022/11/07 02:47:49;;;;;;;8.75;2.15;;;11.40;99.90;;;;;;5074191;28;20020;-73
2022/11/07 02:50:15;;;;;;;5.97;2.53;;;11.50;99.90;;;;;;5073854;28;20115;-73
2022/11/07 02:52:42;;;;;;;8.38;2.17;;;11.50;99.90;;;;;;5073858;28;20020;-73
2022/11/07 02:55:09;;;;;;;6.50;2.30;;;11.50;99.90;;;;;;5074338;28;20060;-73
2022/11/07 02:57:36;;;;;;;14.10;2.83;;;11.50;99.90;;;;;;5074412;28;20421;-74
2022/11/07 03:00:03;;;;;;;11.18;2.63;;;11.60;99.90;;;;;;5073959;28;20039;-73
2022/11/07 03:02:28;;;;;;;5.50;2.63;;;11.50;99.90;;;;;;5073285;28;20036;-73
2022/11/07 03:04:54;;;;;;;15.60;2.63;;;11.50;99.90;;;;;;5074237;28;20042;-73
2022/11/07 03:07:20;;;;;;;6.32;2.50;;;11.40;99.90;;;;;;5073744;28;20035;-73
2022/11/07 03:09:45;;;;;;;17.80;3.75;;;11.50;99.90;;;;;;5058520;28;20104;-73
2022/11/07 03:12:11;;;;;;;10.20;2.00;;;11.40;99.90;;;;;;5073629;28;20024;-73
2022/11/07 03:14:36;;;;;;;14.82;2.35;;;11.50;99.90;;;;;;5072789;28;20115;-74
2022/11/07 03:17:02;;;;;;;9.95;2.97;;;11.50;99.90;;;;;;5072901;28;20078;-74
2022/11/07 03:19:27;;;;;;;6.13;1.92;;;11.50;99.90;;;;;;5073644;28;20028;-73
2022/11/07 03:21:53;;;;;;;13.23;3.00;;;11.40;99.90;;;;;;5074242;28;20471;-73
2022/11/07 03:24:18;;;;;;;10.30;2.67;;;11.50;99.90;;;;;;5073427;28;20056;-73
2022/11/07 03:26:45;;;;;;;14.18;2.90;;;11.40;99.90;;;;;;5072388;28;20492;-73
2022/11/07 03:29:11;;;;;;;11.60;2.35;;;11.50;99.90;;;;;;5072958;28;20072;-74
2022/11/07 03:31:37;;;;;;;11.48;2.45;;;11.50;99.90;;;;;;5072520;28;20079;-73
2022/11/07 03:34:03;;;;;;;12.32;2.70;;;11.50;99.90;;;;;;5072552;28;20032;-74
2022/11/07 03:36:28;;;;;;;13.65;2.97;;;11.50;99.90;;;;;;5073252;28;20017;-73
2022/11/07 03:38:54;;;;;;;8.35;2.78;;;11.50;99.90;;;;;;5073455;28;20115;-73
2022/11/07 03:41:20;;;;;;;9.35;3.20;;;11.50;99.90;;;;;;5073533;28;20020;-73
2022/11/07 03:43:46;;;;;;;13.23;2.70;;;11.50;99.90;;;;;;5072521;28;20036;-73
2022/11/07 03:46:13;;;;;;;12.95;2.67;;;11.50;99.90;;;;;;5072723;28;20349;-74
2022/11/07 03:48:39;;;;;;;10.70;2.67;;;11.50;99.90;;;;;;5072533;28;20105;-73
2022/11/07 03:51:06;;;;;;;15.45;3.13;;;11.50;99.90;;;;;;5073295;28;20484;-74
2022/11/07 03:53:31;;;;;;;13.23;3.22;;;11.50;99.90;;;;;;5072580;28;20036;-74
2022/11/07 03:55:57;;;;;;;10.38;2.47;;;11.40;99.90;;;;;;5073352;28;20024;-73
2022/11/07 03:58:24;;;;;;;10.82;2.65;;;11.50;99.90;;;;;;5072758;28;20052;-73
2022/11/07 04:00:50;;;;;;;9.00;2.30;;;11.40;99.90;;;;;;5073581;28;20108;-73
2022/11/07 04:03:15;;;;;;;6.90;2.20;;;11.40;99.90;;;;;;5073596;28;20052;-73
2022/11/07 04:05:41;;;;;;;12.45;2.53;;;11.50;99.90;;;;;;5072106;28;20103;-73
2022/11/07 04:08:07;;;;;;;9.98;2.63;;;11.50;99.90;;;;;;5068315;28;20021;-74
2022/11/07 04:10:33;;;;;;;15.80;2.95;;;11.50;99.90;;;;;;5062427;28;20026;-73
2022/11/07 04:18:28;;;;;;;9.23;2.55;;;11.50;99.90;;;;;;5072091;28;20027;-74
2022/11/07 04:20:53;;;;;;;14.82;2.58;;;11.50;99.90;;;;;;5071655;28;20408;-74
2022/11/07 04:23:19;;;;;;;12.95;2.67;;;11.60;99.90;;;;;;5071613;28;20093;-74
2022/11/07 04:28:29;;;;;;;15.40;3.17;;;11.70;99.90;;;;;;5071378;28;20051;-74
2022/11/07 04:30:57;;;;;;;18.83;2.92;;;11.70;99.90;;;;;;5072785;28;20036;-74
2022/11/07 04:33:22;;;;;;;11.95;2.65;;;11.70;99.90;;;;;;5071881;28;20043;-74
2022/11/07 04:35:48;;;;;;;11.95;2.72;;;11.70;99.90;;;;;;5073128;28;20025;-73
2022/11/07 04:38:13;;;;;;;14.20;2.53;;;11.70;99.90;;;;;;5076034;28;20039;-74
2022/11/07 04:40:39;;;;;;;14.48;2.70;;;11.70;99.90;;;;;;5078641;28;20017;-74
2022/11/07 04:43:08;;;;;;;13.75;3.25;;;11.70;99.90;;;;;;5079560;28;20028;-74
2022/11/07 04:45:37;;;;;;;11.82;2.85;;;11.70;99.90;;;;;;5078433;28;20028;-73
2022/11/07 04:48:03;;;;;;;16.45;2.85;;;11.70;99.90;;;;;;5078630;28;20476;-73
2022/11/07 04:50:29;;;;;;;10.88;2.78;;;11.70;99.90;;;;;;5078283;28;20048;-75
2022/11/07 04:52:55;;;;;;;11.88;2.42;;;11.70;99.90;;;;;;5081086;28;20032;-74
2022/11/07 04:55:26;;;;;;;21.83;3.15;;;11.70;99.90;;;;;;5080597;28;20487;-75
2022/11/07 04:57:55;;;;;;;13.13;3.13;;;11.70;99.90;;;;;;5079054;28;20024;-74
2022/11/07 05:00:20;;;;;;;21.42;3.65;;;11.70;99.90;;;;;;5079084;28;20025;-74
2022/11/07 05:02:48;;;;;;;11.75;2.58;;;11.70;99.90;;;;;;5078829;28;20031;-74
2022/11/07 05:05:14;;;;;;;21.88;2.95;;;11.70;99.90;;;;;;5079964;28;20051;-73
2022/11/07 05:07:43;;;;;;;15.52;2.35;;;11.70;99.90;;;;;;5078248;28;20426;-74
2022/11/07 05:10:26;;;;;;;9.18;2.33;;;11.80;99.90;;;;;;5066293;28;20021;-74
2022/11/07 05:12:53;;;;;;;13.32;2.67;;;11.80;99.90;;;;;;5079946;28;20025;-74
2022/11/07 05:15:19;;;;;;;17.95;4.05;;;11.80;99.90;;;;;;5086954;28;20040;-75
2022/11/07 05:17:48;;;;;;;16.63;3.80;;;11.80;99.90;;;;;;5084975;28;20236;-74
2022/11/07 05:20:36;;;;;;;17.67;2.90;;;11.80;99.90;;;;;;5065477;28;20103;-74
2022/11/07 05:23:11;;;;;;;13.80;2.88;;;11.80;99.90;;;;;;5078209;28;20070;-74
2022/11/07 05:25:37;;;;;;;19.55;3.60;;;11.80;99.90;;;;;;5086647;28;20035;-74
2022/11/07 05:28:02;;;;;;;20.55;3.83;;;11.80;99.90;;;;;;5083552;28;20049;-75
2022/11/07 05:30:28;;;;;;;21.05;2.97;;;11.80;99.90;;;;;;5077305;28;20013;-75
2022/11/07 05:32:53;;;;;;;17.15;3.08;;;11.80;99.90;;;;;;5078045;28;20035;-75
2022/11/07 05:35:19;;;;;;;10.65;2.42;;;11.70;99.90;;;;;;5077574;28;20021;-75
2022/11/07 05:37:44;;;;;;;15.93;3.10;;;11.60;99.90;;;;;;5077507;28;20039;-74
2022/11/07 05:40:10;;;;;;;15.30;3.30;;;11.70;99.90;;;;;;5064263;28;20071;-73
2022/11/07 05:42:36;;;;;;;11.73;3.20;;;11.60;99.90;;;;;;5078165;28;20028;-74
2022/11/07 05:45:01;;;;;;;21.85;4.57;;;11.60;99.90;;;;;;5078468;28;20028;-74
2022/11/07 05:47:27;;;;;;;13.75;3.35;;;11.70;99.90;;;;;;5078099;28;20027;-74
2022/11/07 05:49:52;;;;;;;15.45;3.38;;;11.70;99.90;;;;;;5075820;28;20040;-74
2022/11/07 05:52:18;;;;;;;11.68;3.13;;;11.70;99.90;;;;;;5074816;28;20444;-74
2022/11/07 05:54:43;;;;;;;12.73;3.80;;;11.70;99.90;;;;;;5074857;28;20033;-74
2022/11/07 05:57:09;;;;;;;25.73;4.63;;;11.70;99.90;;;;;;5074563;28;20434;-74
2022/11/07 05:59:34;;;;;;;25.88;3.80;;;11.60;99.90;;;;;;5074207;28;20028;-75
2022/11/07 06:02:00;;;;;;;13.57;4.05;;;11.60;99.90;;;;;;5074971;28;20476;-75
2022/11/07 06:04:25;;;;;;;14.05;3.63;;;11.60;99.90;;;;;;5074548;28;20401;-74
2022/11/07 06:06:51;;;;;;;17.67;3.72;;;11.70;99.90;;;;;;5074745;28;20027;-74
2022/11/07 06:09:16;;;;;;;19.48;4.65;;;11.60;99.90;;;;;;5060895;28;20025;-74
2022/11/07 06:11:42;;;;;;;15.75;4.95;;;11.60;99.90;;;;;;5061342;28;20075;-75
2022/11/07 06:14:08;;;;;;;18.60;5.10;;;11.60;99.90;;;;;;5054183;28;20044;-74
2022/11/07 06:16:33;;;;;;;15.07;4.40;;;11.60;99.90;;;;;;5060048;28;20099;-74
2022/11/07 06:18:59;;;;;;;13.82;3.33;;;11.60;99.90;;;;;;5054136;28;20329;-74
2022/11/07 06:21:24;;;;;;;24.75;4.97;;;11.60;99.90;;;;;;5057798;28;20044;-75
2022/11/07 06:23:50;;;;;;;16.27;4.05;;;11.70;99.90;;;;;;5056067;28;20376;-75
2022/11/07 06:26:16;;;;;;;16.90;3.75;;;11.70;99.90;;;;;;5072247;28;20016;-75
2022/11/07 06:28:41;;;;;;;18.02;4.00;;;11.80;99.90;;;;;;5060965;28;20052;-75
2022/11/07 06:31:07;;;;;;;16.65;3.97;;;11.70;99.90;;;;;;5058527;28;20024;-75
2022/11/07 06:33:32;;;;;;;18.77;4.00;;;11.70;99.90;;;;;;5053526;28;20037;-75
2022/11/07 06:36:09;;;;;;;9.98;3.83;;;11.80;99.90;;;;;;5059541;28;20028;-75
2022/11/07 06:38:35;;;;;;;18.00;4.05;;;11.80;99.90;;;;;;5057207;28;20380;-75
2022/11/07 06:41:12;;;;;;;23.85;5.95;;;11.80;99.90;;;;;;5054250;28;20370;-75
2022/11/07 06:43:38;;;;;;;11.73;3.03;;;11.90;99.90;;;;;;5058719;28;20472;-75
2022/11/07 06:46:06;;;;;;;19.80;4.05;;;11.90;99.90;;;;;;5092467;28;20134;-76
2022/11/07 06:48:32;;;;;;;19.92;3.95;;;12.00;99.90;;;;;;5090382;28;20028;-75
2022/11/07 06:50:59;;;;;;;11.57;3.20;;;12.40;99.90;;;;;;5092087;28;20017;-74
2022/11/07 06:53:25;;;;;;;15.10;3.80;;;12.10;99.90;;;;;;5091827;28;20048;-74
2022/11/07 06:55:51;;;;;;;13.57;3.15;;;12.10;99.90;;;;;;5090268;28;20475;-75
2022/11/07 06:58:17;;;;;;;13.45;2.63;;;12.60;99.90;;;;;;5093064;28;20024;-75
2022/11/07 07:00:42;;;;;;;15.75;2.63;;;12.10;99.90;;;;;;5080409;28;20031;-75
2022/11/07 07:03:09;;;;;;;16.75;3.40;;;12.00;99.90;;;;;;5060921;28;20027;-75
2022/11/07 07:05:35;;;;;;;16.63;3.40;;;12.00;99.90;;;;;;5066170;28;20381;-74
2022/11/07 07:08:01;;;;;;;12.63;3.10;;;12.00;99.90;;;;;;5070927;28;20025;-74
2022/11/07 07:10:27;;;;;;;14.75;3.15;;;12.00;99.90;;;;;;5067712;28;20020;-73
2022/11/07 07:12:59;;;;;;;10.88;2.58;;;12.10;99.90;;;;;;5086537;28;20085;-75
2022/11/07 07:15:24;;;;;;;14.70;2.67;;;12.00;99.90;;;;;;5086461;28;20521;-75
2022/11/07 07:17:50;;;;;;;13.50;2.65;;;12.10;99.90;;;;;;5088380;28;20104;-75
2022/11/07 07:20:15;;;;;;;12.77;2.80;;;12.00;99.90;;;;;;5084773;28;20021;-75
2022/11/07 07:22:43;;;;;;;13.80;2.65;;;12.00;99.90;;;;;;5088451;28;20460;-75
2022/11/07 07:25:09;;;;;;;10.60;2.78;;;12.10;99.90;;;;;;5084764;28;20032;-75
2022/11/07 07:27:34;;;;;;;16.90;2.95;;;12.10;99.90;;;;;;5082841;28;20376;-75
2022/11/07 07:30:00;;;;;;;13.98;3.08;;;12.10;99.90;;;;;;5082545;28;20059;-74
2022/11/07 07:32:25;;;;;;;12.90;3.10;;;12.10;99.90;;;;;;5086620;28;20095;-73
2022/11/07 07:34:54;;;;;;;12.65;2.67;;;12.20;99.90;;;;;;5088219;28;20048;-75
2022/11/07 07:37:19;;;;;;;12.93;2.92;;;12.30;99.90;;;;;;5084777;28;20017;-74
2022/11/07 07:39:45;;;;;;;17.13;4.70;;;12.20;99.90;;;;;;5088399;28;20032;-73
2022/11/07 07:42:10;;;;;;;16.77;3.40;;;12.20;99.90;;;;;;5083486;28;20031;-73
2022/11/07 07:44:36;;;;;;;20.45;3.33;;;12.30;99.90;;;;;;5074398;28;20036;-74
2022/11/07 07:47:02;;;;;;;20.40;3.55;;;12.30;99.90;;;;;;5071715;28;20029;-74
2022/11/07 07:49:27;;;;;;;21.52;3.30;;;12.30;99.90;;;;;;5071683;28;20419;-73
2022/11/07 07:51:53;;;;;;;18.90;3.58;;;12.40;99.90;;;;;;5071180;28;20086;-74
2022/11/07 07:54:19;;;;;;;18.38;3.97;;;12.40;99.90;;;;;;5071161;28;20087;-73
2022/11/07 07:56:44;;;;;;;15.90;3.22;;;12.40;99.90;;;;;;5072649;28;20035;-74
2022/11/07 07:59:10;;;;;;;17.17;3.88;;;12.40;99.90;;;;;;5073915;28;20033;-74
2022/11/07 08:01:35;;;;;;;15.90;2.80;;;12.40;99.90;;;;;;5068671;28;20039;-74
2022/11/07 08:04:01;;;;;;;11.45;2.65;;;12.40;99.90;;;;;;5062965;28;20495;-73
2022/11/07 08:06:27;;;;;;;11.73;2.88;;;12.50;99.90;;;;;;5068259;28;20030;-74
2022/11/07 08:08:52;;;;;;;13.80;2.83;;;12.50;99.90;;;;;;5069591;28;20166;-74
2022/11/07 08:11:18;;;;;;;15.45;3.15;;;12.50;99.90;;;;;;5056228;28;20032;-74
2022/11/07 08:13:43;;;;;;;15.60;3.88;;;12.60;99.90;;;;;;5080368;28;20035;-73
2022/11/07 08:16:09;;;;;;;15.82;3.10;;;12.60;99.90;;;;;;5092117;28;20027;-73
2022/11/07 08:18:39;;;;;;;10.23;2.35;;;12.60;99.90;;;;;;5091569;28;20115;-73
2022/11/07 08:21:05;;;;;;;13.52;2.55;;;12.60;99.90;;;;;;5092645;28;20028;-73
2022/11/07 08:23:31;;;;;;;10.27;3.47;;;12.60;99.90;;;;;;5092023;28;20020;-72
2022/11/07 08:25:58;;;;;;;13.77;2.70;;;12.70;99.90;;;;;;5091790;28;20020;-73
2022/11/07 08:28:29;;;;;;;17.77;5.22;;;12.60;99.90;;;;;;5090373;28;20035;-74
2022/11/07 08:30:58;;;;;;;15.93;2.70;;;12.70;99.90;;;;;;5091358;28;20016;-74
2022/11/07 08:33:24;;;;;;;9.85;2.22;;;12.80;99.90;;;;;;5090798;28;20043;-74
2022/11/07 08:35:49;;;;;;;13.48;3.90;;;12.80;99.90;;;;;;5091978;28;20024;-73
2022/11/07 08:38:15;;;;;;;10.77;2.92;;;12.80;99.90;;;;;;5091616;28;20349;-74
2022/11/07 08:40:41;;;;;;;12.05;2.92;;;12.80;99.90;;;;;;5091489;28;20161;-73
2022/11/07 08:43:06;;;;;;;12.45;3.20;;;12.80;99.90;;;;;;5092241;28;20378;-73
2022/11/07 08:45:32;;;;;;;16.02;3.13;;;12.90;99.90;;;;;;5091692;28;20024;-74
2022/11/07 08:47:58;;;;;;;13.55;3.22;;;12.80;99.90;;;;;;5091940;28;20558;-75
2022/11/07 08:50:25;;;;;;;12.50;3.50;;;12.80;99.90;;;;;;5091451;28;20046;-70
2022/11/07 08:52:51;;;;;;;8.52;3.00;;;12.90;99.90;;;;;;5092105;28;20035;-73
2022/11/07 08:55:16;;;;;;;13.70;3.05;;;12.90;99.90;;;;;;5091987;28;20040;-76
2022/11/07 08:57:42;;;;;;;19.90;4.45;;;12.90;99.90;;;;;;5092568;28;20103;-75
2022/11/07 09:00:08;;;;;;;15.18;3.03;;;13.00;99.90;;;;;;5092648;28;20083;-75
2022/11/07 09:02:33;;;;;;;12.05;4.50;;;13.00;99.90;;;;;;5091796;28;20016;-75
2022/11/07 09:04:59;;;;;;;13.13;2.92;;;13.10;99.90;;;;;;5093391;28;20069;-75
2022/11/07 09:07:25;;;;;;;12.80;3.63;;;13.20;99.90;;;;;;5092796;28;20043;-75
2022/11/07 09:09:50;;;;;;;13.82;3.30;;;13.20;99.90;;;;;;5061248;28;20082;-73
2022/11/07 09:12:16;;;;;;;13.43;2.67;;;13.20;99.90;;;;;;5077940;28;20036;-76
2022/11/07 09:14:41;;;;;;;11.93;3.83;;;13.30;99.90;;;;;;5075995;28;20051;-75
2022/11/07 09:17:07;;;;;;;18.42;3.40;;;13.30;99.90;;;;;;5070691;28;20028;-74
2022/11/07 09:19:32;;;;;;;16.30;4.38;;;13.40;99.90;;;;;;5068275;28;20028;-74
2022/11/07 09:21:58;;;;;;;11.52;3.10;;;13.30;99.90;;;;;;5071341;28;20021;-75
2022/11/07 09:24:24;;;;;;;17.00;3.55;;;13.40;99.90;;;;;;5072625;28;20078;-75
2022/11/07 09:26:49;;;;;;;26.80;4.88;;;13.50;99.90;;;;;;5077021;28;20027;-76
2022/11/07 09:29:15;;;;;;;14.50;3.03;;;13.50;99.90;;;;;;5076370;28;20468;-75
2022/11/07 09:31:40;;;;;;;14.18;3.10;;;13.50;99.90;;;;;;5072180;28;20384;-75
2022/11/07 09:34:06;;;;;;;7.15;2.60;;;13.50;99.90;;;;;;5074544;28;20032;-75
2022/11/07 09:36:32;;;;;;;11.88;3.17;;;13.50;99.90;;;;;;5074835;28;20060;-76
2022/11/07 09:38:59;;;;;;;16.63;4.05;;;13.40;99.90;;;;;;5075672;28;20024;-74
2022/11/07 09:41:45;;;;;;;13.25;2.72;;;13.50;99.90;;;;;;5074611;28;20381;-75
2022/11/07 09:44:25;;;;;;;12.80;3.72;;;13.50;99.90;;;;;;5071119;28;20041;-74
2022/11/07 09:46:58;;;;;;;;;;;13.50;99.90;;;;;;5072428;28;20021;-74
2022/11/07 09:49:58;;;;;;;11.40;3.72;;;13.50;99.90;;;;;;5074679;28;19912;-75
2022/11/07 09:52:30;;;;;;;11.98;3.97;;;13.60;99.90;;;;;;5061718;28;20538;-74
2022/11/07 09:55:16;;;;;;;17.38;3.60;;;13.60;99.90;;;;;;5069112;28;20048;-75
2022/11/07 09:57:42;;;;;;;11.52;3.50;;;13.70;99.90;;;;;;5062955;28;20543;-74
2022/11/07 10:00:18;;;;;;;15.98;3.75;;;13.60;99.90;;;;;;5075531;28;20060;-74
2022/11/07 10:02:47;;;;;;;11.20;3.40;;;13.60;99.90;;;;;;5073565;28;20040;-74
2022/11/07 10:05:40;;;;;;;12.57;3.78;;;13.70;99.90;;;;;;5071692;28;20024;-74
2022/11/07 10:08:23;;;;;;;16.13;3.75;;;13.70;99.90;;;;;;5076344;28;20017;-74
2022/11/07 10:10:58;;;;;;;10.40;2.70;;;13.70;99.90;;;;;;5068884;28;20052;-74
2022/11/07 10:14:00;;;;;;;17.65;3.83;;;13.70;99.90;;;;;;5075223;28;20098;-75
2022/11/07 10:16:55;;;;;;;19.27;3.92;;;13.70;99.90;;;;;;5073908;28;20020;-75
2022/11/07 10:19:45;;;;;;;19.30;4.10;;;13.80;99.90;;;;;;5073183;28;20035;-75
2022/11/07 10:22:32;;;;;;;12.55;3.08;;;13.90;99.90;;;;;;5073821;28;20031;-76
2022/11/07 10:25:16;;;;;;;13.25;3.17;;;13.90;99.90;;;;;;5072871;28;20024;-74
2022/11/07 10:27:45;;;;;;;7.93;2.22;;;13.90;99.90;;;;;;5073251;28;20063;-75
2022/11/07 10:30:18;;;;;;;12.65;3.20;;;13.90;99.90;;;;;;5073118;28;20120;-74
2022/11/07 10:33:02;;;;;;;13.02;3.42;;;14.00;99.90;;;;;;5073084;28;20398;-75
2022/11/07 10:35:33;;;;;;;19.83;4.18;;;13.90;99.90;;;;;;5073421;28;20472;-76
2022/11/07 10:38:03;;;;;;;14.70;3.10;;;13.90;99.90;;;;;;5074124;28;20024;-75
2022/11/07 10:40:39;;;;;;;8.38;3.00;;;14.00;99.90;;;;;;5073123;28;20086;-75
2022/11/07 10:43:10;;;;;;;13.52;3.45;;;14.00;99.90;;;;;;5066171;28;20021;-76
2022/11/07 10:45:37;;;;;;;12.40;2.97;;;14.00;99.90;;;;;;5077209;28;20025;-75
2022/11/07 10:48:04;;;;;;;11.95;3.05;;;14.00;99.90;;;;;;5070686;28;20025;-75
2022/11/07 10:50:31;;;;;;;22.15;4.70;;;14.00;99.90;;;;;;5066008;28;20017;-77
2022/11/07 10:53:04;;;;;;;13.05;2.85;;;14.00;99.90;;;;;;5066013;28;20322;-78
2022/11/07 10:55:41;;;;;;;12.63;3.50;;;14.00;99.90;;;;;;5066914;28;20112;-76
2022/11/07 10:58:07;;;;;;;20.30;4.05;;;14.00;99.90;;;;;;5071830;28;20536;-77
2022/11/07 11:00:38;;;;;;;15.25;3.70;;;14.00;99.90;;;;;;5071736;28;20045;-77
2022/11/07 11:03:15;;;;;;;15.32;4.13;;;14.00;99.90;;;;;;5077578;28;20103;-76
2022/11/07 11:05:43;;;;;;;14.57;3.88;;;14.00;99.90;;;;;;5075541;28;20028;-77
2022/11/07 11:08:18;;;;;;;13.70;3.75;;;14.00;99.90;;;;;;5069873;28;20029;-76
2022/11/07 11:10:44;;;;;;;14.90;4.75;;;14.10;99.90;;;;;;5061263;28;20025;-76
2022/11/07 11:13:31;;;;;;;11.63;3.90;;;14.10;99.90;;;;;;5059959;28;20027;-77
2022/11/07 11:16:05;;;;;;;19.13;4.18;;;14.10;99.90;;;;;;5070671;28;20025;-76
2022/11/07 11:18:31;;;;;;;15.88;3.45;;;14.20;99.90;;;;;;5074927;28;20028;-76
2022/11/07 11:21:02;;;;;;;15.10;3.65;;;14.20;99.90;;;;;;5072781;28;20533;-76
2022/11/07 11:23:34;;;;;;;14.57;3.40;;;14.20;99.90;;;;;;5069744;28;20024;-75
2022/11/07 11:26:21;;;;;;;13.38;3.50;;;14.20;99.90;;;;;;5067835;28;20024;-76
2022/11/07 11:29:03;;;;;;;18.73;4.00;;;14.30;99.90;;;;;;5057516;28;20044;-76
2022/11/07 11:31:35;;;;;;;16.25;4.32;;;14.30;99.90;;;;;;5070784;28;20032;-77
2022/11/07 11:34:09;;;;;;;12.00;4.13;;;14.40;99.90;;;;;;5075733;28;20369;-77
2022/11/07 11:36:39;;;;;;;16.30;4.60;;;14.40;99.90;;;;;;5071959;28;20085;-77
2022/11/07 11:39:32;;;;;;;18.63;4.00;;;14.50;99.90;;;;;;5076911;28;20032;-76
2022/11/07 11:41:59;;;;;;;16.02;4.35;;;14.50;99.90;;;;;;5058468;28;20039;-77
2022/11/07 11:44:30;;;;;;;14.80;4.57;;;14.60;99.90;;;;;;5089955;28;20028;-77
2022/11/07 11:47:19;;;;;;;11.80;3.58;;;14.70;99.90;;;;;;5078232;28;20029;-78
2022/11/07 11:50:18;;;;;;;11.55;4.93;;;14.70;99.90;;;;;;5077754;28;20033;-79
2022/11/07 11:52:44;;;;;;;19.30;4.05;;;14.80;99.90;;;;;;5052339;28;20453;-77
2022/11/07 11:55:15;;;;;;;19.10;3.42;;;14.80;99.90;;;;;;5076774;28;20039;-78
2022/11/07 11:57:52;;;;;;;13.27;3.60;;;14.80;99.90;;;;;;5066103;28;20020;-79
2022/11/07 12:00:23;;;;;;;19.80;4.35;;;14.90;99.90;;;;;;5079614;28;20138;-79
2022/11/07 12:03:05;;;;;;;16.75;4.82;;;14.90;99.90;;;;;;5072609;28;20052;-78
2022/11/07 12:05:55;;;;;;;18.58;3.83;;;14.90;99.90;;;;;;5069152;28;20098;-77
2022/11/07 12:08:58;;;;;;;9.45;3.25;;;14.90;99.90;;;;;;5071916;28;20404;-77
2022/11/07 12:11:23;;;;;;;9.88;3.15;;;14.90;99.90;;;;;;5055312;28;20032;-78
2022/11/07 12:14:02;;;;;;;9.05;2.92;;;14.90;99.90;;;;;;5080057;28;20028;-77
2022/11/07 12:17:03;;;;;;;13.15;4.15;;;14.90;99.90;;;;;;5070111;28;20067;-78
2022/11/07 12:19:47;;;;;;;22.48;3.33;;;14.80;99.90;;;;;;5057585;28;20040;-77
2022/11/07 12:22:38;;;;;;;11.77;3.25;;;14.80;99.90;;;;;;5066023;28;20009;-78
2022/11/07 12:25:12;;;;;;;14.77;3.90;;;14.80;99.90;;;;;;5072364;28;20032;-78
2022/11/07 12:28:05;;;;;;;14.35;3.20;;;14.80;99.90;;;;;;5073338;28;20137;-77
2022/11/07 12:30:43;;;;;;;17.73;3.10;;;14.80;99.90;;;;;;5072751;28;20103;-79
2022/11/07 12:33:15;;;;;;;10.40;2.80;;;14.80;99.90;;;;;;5071062;28;20042;-78
2022/11/07 12:35:44;;;;;;;11.38;2.88;;;14.80;99.90;;;;;;5071928;28;20063;-78
2022/11/07 12:38:24;;;;;;;9.32;3.08;;;14.80;99.90;;;;;;5070694;28;20024;-77
2022/11/07 12:41:24;;;;;;;15.65;3.25;;;14.80;99.90;;;;;;5066510;28;20507;-78
2022/11/07 12:44:15;;;;;;;18.17;3.42;;;14.70;99.90;;;;;;5061243;28;20063;-78
2022/11/07 12:46:55;;;;;;;9.55;3.58;;;14.70;99.90;;;;;;5078635;28;20036;-76
2022/11/07 12:49:49;;;;;;;14.75;3.75;;;14.60;99.90;;;;;;5090217;28;20024;-77
2022/11/07 12:52:33;;;;;;;13.05;3.50;;;14.60;99.90;;;;;;5094265;28;20426;-77
2022/11/07 12:55:23;;;;;;;19.75;3.55;;;14.50;99.90;;;;;;5091699;28;20032;-78
2022/11/07 12:57:51;;;;;;;16.67;3.17;;;14.60;99.90;;;;;;5090925;28;20051;-76
2022/11/07 13:00:26;;;;;;;13.55;3.83;;;14.60;99.90;;;;;;5095048;28;20289;-76
2022/11/07 13:03:09;;;;;;;14.55;2.92;;;14.50;99.90;;;;;;5095019;28;20120;-76